Time;durP1;ratioP1;P1;durP2;ratioP2;P2;SDS_P1;SDS_P2;PMS_P1;PMS_P2;Temp;Humidity;BMP_temperature;BMP_pressure;BME280_temperature;BME280_humidity;BME280_pressure;Samples;Min_cycle;Max_cycle;Signal;HPM_P1;HPM_P2
2021/08/11 00:00:15;;;;;;;1.58;1.48;;;29.00;66.40;;;;;;5079864;28;20031;-79
2021/08/11 00:02:41;;;;;;;0.70;0.70;;;28.90;66.40;;;;;;5079429;28;20043;-76
2021/08/11 00:05:08;;;;;;;1.30;1.20;;;28.80;65.90;;;;;;5081030;28;20479;-79
2021/08/11 00:07:34;;;;;;;0.68;0.60;;;28.70;65.90;;;;;;5079298;28;20027;-79
2021/08/11 00:09:59;;;;;;;0.40;0.40;;;28.80;66.30;;;;;;5076608;28;20016;-78
2021/08/11 00:12:25;;;;;;;0.65;0.65;;;28.70;66.30;;;;;;5080589;28;20020;-78
2021/08/11 00:14:51;;;;;;;6.40;1.98;;;28.50;66.20;;;;;;5078476;28;20023;-77
2021/08/11 00:17:17;;;;;;;2.40;1.48;;;28.60;66.50;;;;;;5080671;28;20028;-75
2021/08/11 00:19:43;;;;;;;0.60;0.60;;;28.60;66.60;;;;;;5061812;28;20032;-78
2021/08/11 00:22:09;;;;;;;0.50;0.50;;;28.60;66.90;;;;;;5079879;28;20150;-78
2021/08/11 00:24:35;;;;;;;0.50;0.50;;;28.60;66.70;;;;;;5080460;28;20056;-78
2021/08/11 00:27:00;;;;;;;1.08;0.98;;;28.40;65.90;;;;;;5079955;28;20681;-78
2021/08/11 00:29:26;;;;;;;0.50;0.50;;;28.30;65.10;;;;;;5079952;28;20036;-78
2021/08/11 00:31:52;;;;;;;0.88;0.82;;;28.40;65.30;;;;;;5081895;28;20040;-79
2021/08/11 00:34:18;;;;;;;0.82;0.82;;;28.40;65.10;;;;;;5079736;28;20046;-79
2021/08/11 00:36:43;;;;;;;0.45;0.45;;;28.50;64.70;;;;;;5081536;28;20020;-79
2021/08/11 00:39:09;;;;;;;0.68;0.68;;;28.50;65.00;;;;;;5098271;28;20027;-79
2021/08/11 00:41:36;;;;;;;1.50;1.35;;;28.50;65.10;;;;;;5111056;28;20020;-77
2021/08/11 00:44:02;;;;;;;1.45;1.35;;;28.50;64.70;;;;;;5111052;28;20161;-79
2021/08/11 00:46:28;;;;;;;12.90;1.50;;;28.40;64.90;;;;;;5111535;28;20106;-79
2021/08/11 00:48:57;;;;;;;0.80;0.80;;;28.00;66.20;;;;;;5110926;28;20106;-78
2021/08/11 00:51:22;;;;;;;0.73;0.73;;;28.00;66.70;;;;;;5111237;28;20031;-78
2021/08/11 00:53:49;;;;;;;0.40;0.40;;;27.90;67.20;;;;;;5110626;28;20039;-77
2021/08/11 00:56:19;;;;;;;0.70;0.70;;;28.10;66.90;;;;;;5110771;28;20027;-78
2021/08/11 00:58:46;;;;;;;0.85;0.80;;;28.30;66.70;;;;;;5110717;28;20042;-76
2021/08/11 01:01:11;;;;;;;0.50;0.50;;;28.30;67.20;;;;;;5111166;28;20057;-77
2021/08/11 01:03:37;;;;;;;0.93;0.82;;;28.30;67.70;;;;;;5110655;28;20114;-75
2021/08/11 01:06:05;;;;;;;0.63;0.63;;;28.40;67.50;;;;;;5110954;28;20050;-76
2021/08/11 01:08:31;;;;;;;0.45;0.45;;;28.20;67.00;;;;;;5110594;28;20107;-75
2021/08/11 01:10:58;;;;;;;1.23;1.13;;;28.30;67.50;;;;;;5110969;28;20025;-75
2021/08/11 01:13:24;;;;;;;0.85;0.85;;;28.30;67.20;;;;;;5111055;28;20015;-75
2021/08/11 01:15:50;;;;;;;0.50;0.50;;;28.20;67.30;;;;;;5111250;28;20036;-76
2021/08/11 01:18:18;;;;;;;0.82;0.70;;;28.20;67.60;;;;;;5110765;28;20081;-75
2021/08/11 01:21:02;;;;;;;0.70;0.70;;;28.20;68.30;;;;;;5110986;28;20027;-78
2021/08/11 01:23:56;;;;;;;0.70;0.70;;;28.20;68.90;;;;;;5110748;28;20095;-76
2021/08/11 01:27:06;;;;;;;0.52;0.52;;;28.20;68.90;;;;;;5058756;28;20609;-77
2021/08/11 01:29:56;;;;;;;1.15;1.05;;;28.20;69.00;;;;;;5057168;28;20043;-77
2021/08/11 01:32:47;;;;;;;0.52;0.52;;;28.20;68.30;;;;;;5114879;28;20526;-74
2021/08/11 01:35:19;;;;;;;0.60;0.60;;;28.20;68.00;;;;;;5114753;28;20032;-76
2021/08/11 01:37:53;;;;;;;3.40;2.10;;;28.20;67.90;;;;;;5114322;28;20032;-76
2021/08/11 01:40:24;;;;;;;0.70;0.70;;;28.20;68.10;;;;;;5099147;28;20107;-76
2021/08/11 01:42:54;;;;;;;1.50;1.40;;;28.10;68.10;;;;;;5094250;28;20489;-78
2021/08/11 01:45:25;;;;;;;0.70;0.70;;;28.00;68.70;;;;;;5094151;28;20381;-74
2021/08/11 01:48:01;;;;;;;1.25;1.15;;;27.70;69.90;;;;;;5093899;28;20368;-76
2021/08/11 01:50:30;;;;;;;1.65;1.45;;;27.50;70.60;;;;;;5094341;28;20012;-75
2021/08/11 01:52:59;;;;;;;1.35;1.25;;;27.20;71.10;;;;;;5093962;28;20055;-75
2021/08/11 01:55:25;;;;;;;0.60;0.60;;;27.00;72.20;;;;;;5093834;28;20360;-77
2021/08/11 01:57:52;;;;;;;0.80;0.80;;;26.90;72.60;;;;;;5093868;28;20589;-76
2021/08/11 02:00:21;;;;;;;1.27;1.15;;;27.20;72.20;;;;;;5093806;28;20085;-76
2021/08/11 02:02:48;;;;;;;0.70;0.70;;;27.10;72.10;;;;;;5093418;28;20028;-75
2021/08/11 02:05:15;;;;;;;3.95;2.05;;;26.80;72.20;;;;;;5093477;28;20147;-76
2021/08/11 02:07:41;;;;;;;0.95;0.85;;;26.70;73.20;;;;;;5092913;28;20537;-75
2021/08/11 02:10:10;;;;;;;2.42;2.22;;;26.90;73.30;;;;;;5093408;28;20016;-76
2021/08/11 02:12:36;;;;;;;0.63;0.63;;;27.30;72.30;;;;;;5092856;28;20020;-75
2021/08/11 02:15:05;;;;;;;0.60;0.60;;;27.70;71.90;;;;;;5092720;28;20032;-76
2021/08/11 02:17:31;;;;;;;0.63;0.63;;;27.50;71.50;;;;;;5092281;28;20510;-78
2021/08/11 02:19:57;;;;;;;0.98;0.93;;;27.70;71.80;;;;;;5093025;28;20543;-75
2021/08/11 02:22:23;;;;;;;1.30;1.02;;;27.70;72.30;;;;;;5092938;28;20482;-76
2021/08/11 02:24:49;;;;;;;1.20;1.15;;;27.60;72.50;;;;;;5092959;28;20052;-76
2021/08/11 02:27:27;;;;;;;1.02;0.93;;;27.70;71.70;;;;;;5074846;28;20040;-75
2021/08/11 02:30:07;;;;;;;1.05;0.95;;;27.60;70.50;;;;;;5074739;28;20647;-77
2021/08/11 02:32:48;;;;;;;0.50;0.50;;;27.70;70.50;;;;;;5093046;28;20650;-77
2021/08/11 02:35:30;;;;;;;6.85;1.45;;;27.60;70.70;;;;;;5092877;28;20025;-76
2021/08/11 02:38:02;;;;;;;0.88;0.88;;;27.60;70.80;;;;;;5092564;28;20032;-76
2021/08/11 02:40:45;;;;;;;1.08;0.98;;;27.50;70.70;;;;;;5107358;28;20024;-78
2021/08/11 02:43:20;;;;;;;0.47;0.47;;;27.40;70.20;;;;;;5112993;28;20019;-77
2021/08/11 02:45:52;;;;;;;0.60;0.60;;;27.40;71.00;;;;;;5094613;28;20035;-77
2021/08/11 02:48:20;;;;;;;0.90;0.82;;;27.50;70.40;;;;;;5112778;28;20387;-76
2021/08/11 02:50:46;;;;;;;0.70;0.70;;;27.40;71.20;;;;;;5112989;28;20019;-77
2021/08/11 02:53:15;;;;;;;1.25;1.15;;;27.30;71.20;;;;;;5112819;28;20020;-75
2021/08/11 02:55:41;;;;;;;0.60;0.60;;;27.30;71.00;;;;;;5113154;28;20020;-75
2021/08/11 02:58:07;;;;;;;1.02;0.93;;;27.00;72.10;;;;;;5112725;28;20394;-75
2021/08/11 03:00:34;;;;;;;0.77;0.77;;;26.90;72.50;;;;;;5112952;28;20031;-75
2021/08/11 03:03:01;;;;;;;0.90;0.88;;;27.10;70.80;;;;;;5112620;28;20111;-74
2021/08/11 03:05:27;;;;;;;1.50;1.10;;;27.20;70.00;;;;;;5112642;28;20598;-78
2021/08/11 03:07:54;;;;;;;1.60;1.40;;;27.10;69.90;;;;;;5112690;28;20035;-77
2021/08/11 03:10:22;;;;;;;0.75;0.75;;;27.00;70.50;;;;;;5113032;28;20026;-77
2021/08/11 03:12:48;;;;;;;0.70;0.70;;;27.00;70.80;;;;;;5094484;28;20081;-77
2021/08/11 03:15:16;;;;;;;1.33;1.05;;;27.10;71.40;;;;;;5112097;28;20024;-76
2021/08/11 03:17:45;;;;;;;1.50;1.40;;;27.10;71.20;;;;;;5112689;28;20035;-77
2021/08/11 03:20:11;;;;;;;0.95;0.95;;;26.90;71.90;;;;;;5111978;28;20073;-76
2021/08/11 03:22:38;;;;;;;0.60;0.60;;;27.00;72.10;;;;;;5112126;28;20065;-77
2021/08/11 03:25:05;;;;;;;1.15;1.05;;;26.70;72.70;;;;;;5112743;28;20140;-77
2021/08/11 03:27:30;;;;;;;0.75;0.75;;;26.80;72.90;;;;;;5112241;28;20023;-77
2021/08/11 03:29:56;;;;;;;1.63;1.48;;;26.80;72.50;;;;;;5111949;28;20043;-76
2021/08/11 03:32:22;;;;;;;1.35;1.25;;;26.60;72.20;;;;;;5093832;28;20122;-74
2021/08/11 03:34:48;;;;;;;0.63;0.63;;;26.50;72.60;;;;;;5093677;28;20062;-77
2021/08/11 03:37:16;;;;;;;0.65;0.65;;;26.50;72.60;;;;;;5093907;28;20399;-77
2021/08/11 03:39:42;;;;;;;1.58;1.48;;;26.60;72.20;;;;;;5104438;28;20232;-76
2021/08/11 03:42:08;;;;;;;0.90;0.90;;;26.60;71.90;;;;;;5091796;28;20540;-75
2021/08/11 03:44:35;;;;;;;3.10;2.17;;;26.70;71.70;;;;;;5091754;28;20375;-78
2021/08/11 03:47:01;;;;;;;0.80;0.80;;;26.60;71.60;;;;;;5073465;28;20035;-77
2021/08/11 03:49:27;;;;;;;0.85;0.80;;;26.60;71.30;;;;;;5091184;28;20436;-75
2021/08/11 03:51:53;;;;;;;0.60;0.60;;;26.60;71.70;;;;;;5073319;28;20530;-76
2021/08/11 03:54:19;;;;;;;0.80;0.80;;;26.60;71.30;;;;;;5073114;28;20527;-77
2021/08/11 03:56:44;;;;;;;0.70;0.70;;;26.60;71.10;;;;;;5091742;28;20016;-75
2021/08/11 03:59:10;;;;;;;1.15;1.05;;;26.60;71.00;;;;;;5090806;28;20032;-75
2021/08/11 04:01:36;;;;;;;1.42;1.33;;;26.50;71.40;;;;;;5091813;28;20468;-74
2021/08/11 04:04:02;;;;;;;0.75;0.75;;;26.40;72.50;;;;;;5091044;28;20123;-76
2021/08/11 04:06:27;;;;;;;1.25;1.13;;;26.20;72.20;;;;;;5091320;28;20352;-76
2021/08/11 04:08:53;;;;;;;1.48;1.25;;;26.40;72.50;;;;;;5090873;28;20479;-76
2021/08/11 04:11:19;;;;;;;0.77;0.77;;;26.20;72.10;;;;;;5091527;28;20442;-75
2021/08/11 04:13:45;;;;;;;0.77;0.77;;;26.10;73.40;;;;;;5091241;28;20528;-76
2021/08/11 04:16:11;;;;;;;1.42;1.20;;;26.30;73.60;;;;;;5091675;28;20032;-77
2021/08/11 04:18:36;;;;;;;0.75;0.70;;;26.30;73.30;;;;;;5091287;28;20349;-75
2021/08/11 04:21:02;;;;;;;1.35;1.25;;;26.30;73.40;;;;;;5091357;28;20111;-76
2021/08/11 04:23:28;;;;;;;1.50;1.27;;;26.40;73.30;;;;;;5091048;28;20067;-75
2021/08/11 04:25:54;;;;;;;1.23;1.08;;;26.20;72.90;;;;;;5090532;28;20016;-76
2021/08/11 04:28:20;;;;;;;1.00;0.98;;;26.20;73.50;;;;;;5091155;28;20027;-75
2021/08/11 04:30:46;;;;;;;0.70;0.70;;;26.20;73.10;;;;;;5091224;28;20032;-77
2021/08/11 04:33:24;;;;;;;0.70;0.70;;;26.20;73.00;;;;;;5072646;28;20040;-78
2021/08/11 04:35:49;;;;;;;2.00;1.25;;;26.20;73.00;;;;;;5090683;28;20157;-78
2021/08/11 04:38:17;;;;;;;0.68;0.68;;;26.20;74.00;;;;;;5091057;28;20107;-76
2021/08/11 04:40:43;;;;;;;0.95;0.93;;;26.20;74.70;;;;;;5087056;28;20118;-76
2021/08/11 04:43:09;;;;;;;1.42;1.33;;;26.50;74.20;;;;;;5111151;28;20035;-78
2021/08/11 04:45:41;;;;;;;2.08;1.50;;;26.50;74.00;;;;;;5110850;28;20028;-78
2021/08/11 04:48:07;;;;;;;0.98;0.95;;;26.40;73.90;;;;;;5093000;28;20039;-76
2021/08/11 04:50:33;;;;;;;1.70;1.33;;;26.50;73.80;;;;;;5110676;28;20368;-77
2021/08/11 04:52:59;;;;;;;4.30;3.90;;;26.40;74.10;;;;;;5111405;28;20098;-76
2021/08/11 04:55:25;;;;;;;9.15;5.13;;;26.50;73.80;;;;;;5110646;28;20130;-78
2021/08/11 04:57:51;;;;;;;4.63;3.72;;;26.60;73.80;;;;;;5110998;28;20039;-79
2021/08/11 05:00:17;;;;;;;1.92;1.77;;;26.70;74.20;;;;;;5110838;28;20027;-80
2021/08/11 05:02:43;;;;;;;1.63;1.52;;;26.50;74.10;;;;;;5110668;28;20035;-80
2021/08/11 05:05:09;;;;;;;1.00;0.93;;;26.70;75.60;;;;;;5113611;28;20064;-76
2021/08/11 05:07:35;;;;;;;1.15;1.05;;;26.60;74.10;;;;;;5114935;28;20031;-78
2021/08/11 05:10:01;;;;;;;0.50;0.50;;;26.50;73.90;;;;;;5114819;28;20364;-79
2021/08/11 05:12:31;;;;;;;1.20;1.10;;;26.50;73.90;;;;;;5115220;28;20028;-77
2021/08/11 05:15:00;;;;;;;0.68;0.68;;;26.50;73.70;;;;;;5114862;28;20024;-80
2021/08/11 05:17:26;;;;;;;1.48;1.38;;;26.40;73.90;;;;;;5115030;28;20044;-78
2021/08/11 05:19:53;;;;;;;1.38;1.08;;;26.50;74.20;;;;;;5114879;28;20391;-83
2021/08/11 05:22:20;;;;;;;7.70;2.88;;;26.40;73.70;;;;;;5114962;28;20023;-78
2021/08/11 05:24:46;;;;;;;14.63;9.00;;;26.40;73.80;;;;;;5114193;28;20431;-79
2021/08/11 05:27:14;;;;;;;5.68;4.00;;;26.50;73.60;;;;;;5114888;28;20474;-82
2021/08/11 05:29:42;;;;;;;7.05;6.40;;;26.60;73.60;;;;;;5114507;28;20037;-79
2021/08/11 05:32:09;;;;;;;8.73;6.97;;;26.70;73.30;;;;;;5107026;28;20040;-75
2021/08/11 05:34:34;;;;;;;8.23;7.32;;;26.90;73.10;;;;;;5086711;28;20392;-76
2021/08/11 05:37:00;;;;;;;3.85;3.22;;;26.90;72.30;;;;;;5090053;28;20452;-75
2021/08/11 05:39:26;;;;;;;3.17;2.33;;;26.90;72.30;;;;;;5095486;28;20479;-80
2021/08/11 05:41:52;;;;;;;1.48;1.30;;;26.90;74.30;;;;;;5114242;28;20030;-79
2021/08/11 05:44:19;;;;;;;0.90;0.77;;;26.90;76.90;;;;;;5114206;28;20016;-80
2021/08/11 05:46:45;;;;;;;1.02;0.95;;;26.80;78.70;;;;;;5114410;28;20054;-77
2021/08/11 05:49:11;;;;;;;1.15;1.05;;;26.70;78.90;;;;;;5113595;28;20403;-78
2021/08/11 05:51:38;;;;;;;0.98;0.98;;;26.70;78.50;;;;;;5114184;28;20024;-75
2021/08/11 05:54:05;;;;;;;1.30;1.23;;;26.70;78.80;;;;;;5114087;28;20031;-82
2021/08/11 05:56:34;;;;;;;1.88;1.60;;;26.70;77.80;;;;;;5114210;28;20027;-80
2021/08/11 05:59:00;;;;;;;1.27;1.15;;;26.70;79.10;;;;;;5114066;28;20173;-78
2021/08/11 06:01:26;;;;;;;3.40;2.55;;;26.80;75.70;;;;;;5113645;28;20122;-78
2021/08/11 06:03:55;;;;;;;4.47;3.65;;;27.00;81.00;;;;;;5114014;28;20035;-78
2021/08/11 06:06:21;;;;;;;3.35;2.65;;;27.00;80.20;;;;;;5114107;28;20020;-81
2021/08/11 06:08:46;;;;;;;0.93;0.93;;;27.00;75.00;;;;;;5113780;28;20032;-79
2021/08/11 06:11:12;;;;;;;1.15;1.05;;;26.80;76.10;;;;;;5113685;28;20038;-80
2021/08/11 06:13:38;;;;;;;0.82;0.82;;;26.80;77.60;;;;;;5113367;28;20032;-80
2021/08/11 06:16:04;;;;;;;2.08;1.88;;;26.90;79.40;;;;;;5112696;28;20031;-77
2021/08/11 06:18:30;;;;;;;1.15;0.95;;;27.10;82.00;;;;;;5113430;28;20090;-79
2021/08/11 06:20:56;;;;;;;1.13;1.05;;;27.10;75.50;;;;;;5113921;28;20428;-80
2021/08/11 06:23:22;;;;;;;2.28;1.40;;;26.90;76.60;;;;;;5113663;28;20023;-80
2021/08/11 06:25:48;;;;;;;0.77;0.77;;;27.00;77.10;;;;;;5113627;28;20024;-80
2021/08/11 06:28:14;;;;;;;1.95;1.27;;;27.20;80.70;;;;;;5113627;28;20459;-79
2021/08/11 06:30:40;;;;;;;2.25;1.50;;;27.40;80.70;;;;;;5113463;28;20024;-81
2021/08/11 06:33:06;;;;;;;5.28;1.55;;;27.60;78.30;;;;;;5113222;28;20070;-80
2021/08/11 06:35:33;;;;;;;2.25;1.52;;;27.70;75.40;;;;;;5113159;28;20024;-77
2021/08/11 06:37:59;;;;;;;2.25;1.40;;;27.80;76.60;;;;;;5113347;28;20076;-80
2021/08/11 06:40:24;;;;;;;1.58;1.48;;;27.80;78.00;;;;;;5104421;28;20024;-79
2021/08/11 06:42:51;;;;;;;1.20;1.10;;;27.70;75.60;;;;;;5093139;28;20026;-80
2021/08/11 06:45:17;;;;;;;1.33;1.00;;;27.90;75.30;;;;;;5092719;28;20032;-80
2021/08/11 06:47:43;;;;;;;1.17;1.00;;;27.90;76.20;;;;;;5092884;28;20103;-79
2021/08/11 06:50:10;;;;;;;2.10;1.50;;;27.90;75.50;;;;;;5092801;28;20020;-80
2021/08/11 06:52:36;;;;;;;0.50;0.50;;;27.90;79.50;;;;;;5092477;28;20036;-79
2021/08/11 06:55:07;;;;;;;1.73;1.40;;;28.10;79.30;;;;;;5092851;28;20108;-77
2021/08/11 06:57:33;;;;;;;0.70;0.70;;;28.10;79.70;;;;;;5092658;28;20039;-79
2021/08/11 06:59:59;;;;;;;0.82;0.82;;;28.10;78.70;;;;;;5092452;28;20020;-80
2021/08/11 07:02:24;;;;;;;2.85;1.70;;;28.10;77.30;;;;;;5093164;28;20153;-76
2021/08/11 07:04:50;;;;;;;0.93;0.85;;;28.30;76.00;;;;;;5092589;28;20057;-78
2021/08/11 07:07:16;;;;;;;1.23;1.13;;;28.30;77.70;;;;;;5092497;28;20028;-77
2021/08/11 07:09:42;;;;;;;1.58;1.40;;;28.20;75.50;;;;;;5092442;28;20051;-78
2021/08/11 07:12:08;;;;;;;1.17;1.08;;;28.10;74.90;;;;;;5091870;28;20578;-79
2021/08/11 07:14:34;;;;;;;0.90;0.80;;;28.10;75.10;;;;;;5092283;28;20020;-80
2021/08/11 07:16:59;;;;;;;1.80;1.30;;;28.20;73.80;;;;;;5092786;28;20379;-78
2021/08/11 07:19:25;;;;;;;1.10;1.02;;;28.20;74.60;;;;;;5091641;28;20032;-76
2021/08/11 07:21:51;;;;;;;0.93;0.85;;;28.30;75.60;;;;;;5092065;28;20060;-77
2021/08/11 07:24:18;;;;;;;1.13;1.02;;;28.40;74.80;;;;;;5091508;28;20494;-79
2021/08/11 07:26:44;;;;;;;1.15;1.08;;;28.50;74.40;;;;;;5091477;28;20411;-76
2021/08/11 07:29:10;;;;;;;1.98;1.50;;;28.80;77.70;;;;;;5092079;28;20482;-77
2021/08/11 07:31:36;;;;;;;1.35;1.13;;;28.90;72.80;;;;;;5092124;28;20513;-77
2021/08/11 07:34:01;;;;;;;1.13;0.98;;;28.90;72.80;;;;;;5092043;28;20035;-76
2021/08/11 07:36:27;;;;;;;2.08;1.80;;;29.00;76.40;;;;;;5091910;28;20107;-78
2021/08/11 07:38:53;;;;;;;0.70;0.70;;;29.10;77.00;;;;;;5092056;28;20169;-77
2021/08/11 07:41:19;;;;;;;1.92;1.40;;;29.30;77.70;;;;;;5106678;28;20474;-79
2021/08/11 07:43:45;;;;;;;0.40;0.40;;;29.30;76.50;;;;;;5112112;28;20157;-77
2021/08/11 07:46:10;;;;;;;0.88;0.80;;;29.40;72.90;;;;;;5112802;28;20112;-86
2021/08/11 07:48:36;;;;;;;0.50;0.50;;;29.50;76.60;;;;;;5111792;28;20479;-76
2021/08/11 07:51:03;;;;;;;1.38;1.05;;;29.40;71.60;;;;;;5112117;28;20499;-77
2021/08/11 07:53:29;;;;;;;0.90;0.80;;;29.00;70.10;;;;;;5112421;28;20023;-81
2021/08/11 07:55:55;;;;;;;1.58;1.25;;;29.10;73.10;;;;;;5093979;28;20023;-75
2021/08/11 07:58:24;;;;;;;1.35;1.25;;;29.30;74.50;;;;;;5111440;28;20490;-75
2021/08/11 08:00:50;;;;;;;0.68;0.63;;;29.40;73.60;;;;;;5093640;28;20031;-75
2021/08/11 08:03:16;;;;;;;1.08;0.98;;;29.40;74.10;;;;;;5111943;28;20027;-76
2021/08/11 08:05:42;;;;;;;1.02;0.90;;;29.60;69.60;;;;;;5111727;28;20023;-75
2021/08/11 08:08:08;;;;;;;1.13;1.02;;;29.60;73.80;;;;;;5111443;28;20076;-77
2021/08/11 08:10:34;;;;;;;2.22;1.95;;;29.80;74.40;;;;;;5111701;28;20110;-76
2021/08/11 08:13:00;;;;;;;1.10;0.88;;;29.90;69.50;;;;;;5111467;28;20421;-75
2021/08/11 08:15:28;;;;;;;1.73;1.55;;;29.90;70.20;;;;;;5111712;28;20739;-75
2021/08/11 08:17:54;;;;;;;1.10;1.00;;;29.90;71.00;;;;;;5111177;28;20039;-76
2021/08/11 08:20:20;;;;;;;0.75;0.75;;;29.90;72.00;;;;;;5102027;28;20059;-75
2021/08/11 08:22:49;;;;;;;1.50;1.17;;;30.00;73.00;;;;;;5085078;28;20052;-76
2021/08/11 08:25:21;;;;;;;2.90;2.03;;;30.10;69.80;;;;;;5072671;28;20028;-75
2021/08/11 08:27:49;;;;;;;0.57;0.57;;;30.20;68.60;;;;;;5091094;28;20449;-79
2021/08/11 08:30:17;;;;;;;1.10;1.00;;;30.30;68.10;;;;;;5090621;28;20150;-75
2021/08/11 08:32:43;;;;;;;1.05;0.68;;;30.50;68.90;;;;;;5090611;28;20458;-75
2021/08/11 08:35:10;;;;;;;1.33;1.17;;;30.70;67.10;;;;;;5072673;28;20386;-80
2021/08/11 08:37:37;;;;;;;1.52;1.08;;;30.80;67.00;;;;;;5091232;28;20042;-80
2021/08/11 08:40:12;;;;;;;1.08;0.95;;;30.70;68.40;;;;;;5078533;28;20036;-81
2021/08/11 08:42:40;;;;;;;1.52;1.05;;;30.60;65.30;;;;;;5097035;28;20137;-81
2021/08/11 08:45:08;;;;;;;1.65;1.17;;;30.80;66.20;;;;;;5097341;28;20103;-78
2021/08/11 08:47:37;;;;;;;1.48;1.10;;;30.90;65.30;;;;;;5115160;28;20032;-79
2021/08/11 08:50:05;;;;;;;1.17;0.93;;;30.90;63.60;;;;;;5115394;28;20480;-77
2021/08/11 08:52:32;;;;;;;1.52;0.70;;;30.80;64.80;;;;;;5115402;28;20264;-78
2021/08/11 08:55:00;;;;;;;2.42;1.10;;;30.90;65.60;;;;;;5115197;28;20478;-76
2021/08/11 08:57:27;;;;;;;1.15;0.95;;;31.00;64.10;;;;;;5114988;28;20126;-77
2021/08/11 08:59:53;;;;;;;3.33;1.10;;;31.00;63.90;;;;;;5115408;28;20352;-78
2021/08/11 09:02:19;;;;;;;3.10;1.23;;;30.90;64.10;;;;;;5115733;28;20023;-76
2021/08/11 09:04:45;;;;;;;0.60;0.60;;;30.80;63.70;;;;;;5115226;28;20038;-78
2021/08/11 09:07:19;;;;;;;0.50;0.50;;;31.10;62.60;;;;;;5115175;28;20027;-79
2021/08/11 09:09:45;;;;;;;1.45;0.95;;;31.30;63.40;;;;;;5115062;28;20129;-77
2021/08/11 09:12:17;;;;;;;0.77;0.77;;;31.60;62.70;;;;;;5115361;28;20367;-78
2021/08/11 09:14:48;;;;;;;1.23;1.02;;;31.90;61.50;;;;;;5114887;28;20073;-83
2021/08/11 09:17:38;;;;;;;0.60;0.60;;;32.10;60.50;;;;;;5115200;28;20055;-77
2021/08/11 09:20:07;;;;;;;6.53;1.10;;;32.40;60.70;;;;;;5115319;28;20047;-78
2021/08/11 09:22:46;;;;;;;1.65;0.82;;;32.50;60.70;;;;;;5096362;28;20042;-79
2021/08/11 09:25:12;;;;;;;5.65;1.38;;;32.30;60.40;;;;;;5115048;28;20413;-77
2021/08/11 09:27:45;;;;;;;2.33;1.95;;;32.40;59.90;;;;;;5114979;28;20020;-80
2021/08/11 09:30:23;;;;;;;0.82;0.65;;;32.50;60.20;;;;;;5097218;28;20613;-93
2021/08/11 09:32:55;;;;;;;1.20;1.05;;;32.70;59.70;;;;;;5078121;28;20131;-89
2021/08/11 09:35:23;;;;;;;0.50;0.50;;;32.90;59.50;;;;;;5066964;28;20029;-93
2021/08/11 09:37:50;;;;;;;0.82;0.70;;;32.90;58.90;;;;;;5072733;28;20476;-88
2021/08/11 09:40:22;;;;;;;0.30;0.30;;;32.90;59.50;;;;;;5068874;28;20063;-91
2021/08/11 09:42:53;;;;;;;0.90;0.77;;;33.20;59.10;;;;;;5116151;28;20041;-92
2021/08/11 09:45:18;;;;;;;0.77;0.73;;;33.20;59.00;;;;;;5118158;28;20023;-91
2021/08/11 09:48:18;;;;;;;1.20;1.10;;;33.50;60.30;;;;;;5102131;28;20034;-88
2021/08/11 09:51:02;;;;;;;2.17;0.80;;;33.50;57.80;;;;;;5100394;28;20070;-93
2021/08/11 09:53:31;;;;;;;0.90;0.73;;;33.20;57.60;;;;;;5102222;28;20023;-94
2021/08/11 09:58:39;;;;;;;1.05;0.88;;;33.20;58.30;;;;;;5092767;22;20512;-90
2021/08/11 10:01:16;;;;;;;0.70;0.70;;;33.40;58.50;;;;;;5060425;28;20032;-94
2021/08/11 10:04:07;;;;;;;0.93;0.85;;;33.30;58.00;;;;;;5079247;22;20149;-89
2021/08/11 10:14:03;;;;;;;3.03;1.25;;;33.20;57.90;;;;;;5036074;28;20036;-92
2021/08/11 10:16:36;;;;;;;0.75;0.75;;;33.30;57.80;;;;;;5017834;28;20064;-94
2021/08/11 10:19:39;;;;;;;0.73;0.63;;;33.80;57.80;;;;;;5036573;28;20033;-92
2021/08/11 10:25:31;;;;;;;0.68;0.52;;;34.40;57.20;;;;;;5033909;28;20048;-89
2021/08/11 10:27:59;;;;;;;0.77;0.60;;;34.30;56.30;;;;;;5031560;28;20024;-85
2021/08/11 10:30:41;;;;;;;1.23;0.95;;;34.00;55.80;;;;;;5035194;28;20033;-93
2021/08/11 10:33:47;;;;;;;3.20;1.42;;;33.80;56.20;;;;;;5037707;28;20013;-90
2021/08/11 10:40:24;;;;;;;0.98;0.77;;;33.80;55.80;;;;;;5035273;28;20037;-93
2021/08/11 10:46:50;;;;;;;0.40;0.40;;;34.00;55.10;;;;;;4972971;28;20474;-83
2021/08/11 10:49:23;;;;;;;2.00;0.80;;;33.90;54.70;;;;;;5029018;28;20358;-84
2021/08/11 10:51:50;;;;;;;1.65;1.40;;;34.10;54.70;;;;;;5031449;28;20021;-81
2021/08/11 10:54:17;;;;;;;0.57;0.52;;;34.50;53.60;;;;;;5028897;28;20097;-83
2021/08/11 10:56:51;;;;;;;0.75;0.32;;;34.80;53.50;;;;;;5032087;28;20123;-83
2021/08/11 10:59:23;;;;;;;1.05;0.77;;;34.50;53.60;;;;;;5013370;28;20030;-81
2021/08/11 11:01:56;;;;;;;0.82;0.82;;;34.10;54.20;;;;;;5030989;28;20025;-81
2021/08/11 11:04:43;;;;;;;0.43;0.40;;;33.90;54.50;;;;;;5029841;28;20092;-83
2021/08/11 11:07:09;;;;;;;1.13;0.75;;;33.80;55.00;;;;;;5030413;28;20026;-79
2021/08/11 11:09:36;;;;;;;0.73;0.65;;;33.80;55.00;;;;;;5013147;28;20047;-83
2021/08/11 11:12:20;;;;;;;1.98;1.17;;;33.50;54.50;;;;;;5032074;28;20465;-88
2021/08/11 11:15:00;;;;;;;0.63;0.63;;;33.20;54.90;;;;;;5030191;28;20473;-86
2021/08/11 11:17:28;;;;;;;1.40;0.98;;;33.20;55.80;;;;;;5011962;28;20120;-85
2021/08/11 11:20:09;;;;;;;4.13;1.75;;;33.20;56.50;;;;;;5030723;28;20032;-85
2021/08/11 11:22:55;;;;;;;0.95;0.85;;;33.30;55.50;;;;;;5032232;28;20381;-84
2021/08/11 11:25:59;;;;;;;1.48;0.80;;;33.30;55.30;;;;;;5032094;28;20104;-88
2021/08/11 11:28:56;;;;;;;0.55;0.55;;;33.20;55.10;;;;;;5023406;28;20660;-83
2021/08/11 11:31:41;;;;;;;0.52;0.52;;;33.20;55.40;;;;;;5030344;28;20026;-84
2021/08/11 11:34:25;;;;;;;1.13;0.88;;;33.30;55.90;;;;;;5011879;28;20104;-89
2021/08/11 11:36:58;;;;;;;1.23;1.02;;;33.60;54.50;;;;;;5014280;28;20025;-86
2021/08/11 11:39:29;;;;;;;2.20;1.27;;;33.70;54.10;;;;;;5029993;28;20490;-88
2021/08/11 11:42:07;;;;;;;1.13;0.85;;;33.80;55.20;;;;;;5029491;28;20661;-79
2021/08/11 11:44:42;;;;;;;2.05;1.05;;;33.90;55.80;;;;;;5029144;28;20451;-80
2021/08/11 11:47:13;;;;;;;0.63;0.63;;;34.60;56.40;;;;;;5015764;28;20496;-79
2021/08/11 11:49:39;;;;;;;0.45;0.45;;;35.00;55.70;;;;;;5031033;28;20116;-84
2021/08/11 11:52:16;;;;;;;0.35;0.35;;;35.30;54.80;;;;;;5031683;28;20100;-81
2021/08/11 11:54:47;;;;;;;0.20;0.20;;;35.50;54.60;;;;;;5013432;28;20513;-81
2021/08/11 11:57:14;;;;;;;0.20;0.20;;;35.60;54.40;;;;;;5036640;28;20401;-81
2021/08/11 11:59:47;;;;;;;1.20;0.95;;;35.50;55.20;;;;;;5029381;28;20021;-84
2021/08/11 12:02:20;;;;;;;0.50;0.38;;;35.60;54.50;;;;;;5013683;28;20033;-81
2021/08/11 12:05:02;;;;;;;0.45;0.45;;;35.70;53.90;;;;;;5031115;28;20074;-81
2021/08/11 12:07:30;;;;;;;0.80;0.57;;;35.50;53.30;;;;;;5030406;28;20057;-81
2021/08/11 12:09:56;;;;;;;0.50;0.50;;;35.60;53.40;;;;;;5029963;28;20069;-78
2021/08/11 12:12:22;;;;;;;0.50;0.38;;;35.80;54.50;;;;;;5050522;28;20040;-81
2021/08/11 12:14:47;;;;;;;1.98;0.88;;;36.10;53.40;;;;;;5037973;28;20022;-83
2021/08/11 12:17:29;;;;;;;1.00;0.73;;;36.30;52.80;;;;;;5029791;28;20084;-84
2021/08/11 12:19:56;;;;;;;0.38;0.38;;;36.70;53.00;;;;;;5028666;28;20060;-84
2021/08/11 12:22:40;;;;;;;2.72;1.63;;;37.10;52.00;;;;;;5030477;28;20365;-79
2021/08/11 12:25:21;;;;;;;1.50;0.93;;;37.10;52.20;;;;;;5029929;28;20029;-80
2021/08/11 12:28:12;;;;;;;2.47;1.85;;;37.20;51.70;;;;;;5012452;28;20024;-78
2021/08/11 12:30:50;;;;;;;0.80;0.55;;;36.60;51.80;;;;;;5029732;28;20021;-83
2021/08/11 12:33:19;;;;;;;1.73;1.00;;;36.40;52.20;;;;;;5028462;28;20026;-86
2021/08/11 12:35:45;;;;;;;0.68;0.55;;;36.40;52.00;;;;;;5034185;28;20026;-82
2021/08/11 12:38:11;;;;;;;3.63;1.17;;;36.80;52.20;;;;;;5015611;28;20038;-83
2021/08/11 12:40:40;;;;;;;4.50;2.25;;;37.20;51.70;;;;;;5015643;28;20087;-81
2021/08/11 12:43:09;;;;;;;0.70;0.60;;;37.70;51.50;;;;;;5031305;28;20048;-82
2021/08/11 12:45:52;;;;;;;0.27;0.27;;;37.80;50.90;;;;;;5031201;28;20061;-83
2021/08/11 12:48:29;;;;;;;2.67;1.85;;;37.80;51.10;;;;;;5024690;28;20032;-78
2021/08/11 12:50:57;;;;;;;1.63;1.33;;;37.60;50.50;;;;;;5032339;28;20030;-83
2021/08/11 12:53:35;;;;;;;1.27;0.93;;;37.80;50.30;;;;;;5040748;28;20032;-85
2021/08/11 12:56:15;;;;;;;0.40;0.40;;;37.90;50.60;;;;;;5032455;28;20021;-82
2021/08/11 12:58:57;;;;;;;2.05;0.70;;;37.60;50.50;;;;;;5029605;28;20033;-83
2021/08/11 13:01:41;;;;;;;0.40;0.40;;;37.80;51.00;;;;;;5013341;28;20355;-85
2021/08/11 13:04:16;;;;;;;2.35;0.88;;;37.60;51.60;;;;;;5045075;28;20025;-83
2021/08/11 13:06:46;;;;;;;0.38;0.30;;;37.40;50.20;;;;;;5050952;28;20033;-78
2021/08/11 13:09:27;;;;;;;2.08;1.20;;;37.50;50.50;;;;;;5013597;28;20374;-83
2021/08/11 13:11:56;;;;;;;0.98;0.50;;;37.60;50.70;;;;;;5030935;28;20029;-81
2021/08/11 13:14:57;;;;;;;0.47;0.43;;;37.60;50.30;;;;;;5030641;28;20122;-83
2021/08/11 13:17:31;;;;;;;1.63;0.88;;;37.40;50.10;;;;;;5011499;28;20774;-83
2021/08/11 13:20:14;;;;;;;2.47;1.25;;;37.20;50.50;;;;;;5028090;28;20098;-80
2021/08/11 13:22:43;;;;;;;1.02;0.80;;;37.10;50.50;;;;;;5027541;28;20060;-85